Ridgeway, Ohio
Current Conditions -  °F | °C
As of 1:30 AM on Friday 19 Dec 2014 (Local Time) from KEDJ Reporting Station
Overcast Overcast  
Wind Chill: -4°   Ceiling: 2000
Heat Index: -4°   Visibility: 8mi
Dew Point: -5°   Wind: 3mph
Humidity: 93%   Direction: 270°W
Pressure: 30.2"   Gusts: NA
Location:  40.51°N, 83.57°W
Report Text: KEDJ 190630Z AUTO 27003KT 8SM OVC020 M04/M05 A3020 RMK AO1
Loading
Personal Weather Stations






























Interactive Weather Map New forecast layout! Learn more

10-Day Weather Forecast

Advertisements
Track Severe Weather on mobile